sensor_id;sensor_type;location;lat;lon;timestamp;pressure;altitude;pressure_sealevel;temperature
20733;BMP180;10527;52.124;5.196;2022-09-21T00:01:30;102553.00;;;23.00
20733;BMP180;10527;52.124;5.196;2022-09-21T00:04:01;102559.00;;;23.00
20733;BMP180;10527;52.124;5.196;2022-09-21T00:06:32;102547.00;;;23.00
20733;BMP180;10527;52.124;5.196;2022-09-21T00:09:00;102552.00;;;22.90
20733;BMP180;10527;52.124;5.196;2022-09-21T00:11:32;102558.00;;;22.90
20733;BMP180;10527;52.124;5.196;2022-09-21T00:14:12;102548.00;;;22.90
20733;BMP180;10527;52.124;5.196;2022-09-21T00:16:41;102557.00;;;22.90
20733;BMP180;10527;52.124;5.196;2022-09-21T00:19:10;102552.00;;;22.80
20733;BMP180;10527;52.124;5.196;2022-09-21T00:21:38;102553.00;;;22.80
20733;BMP180;10527;52.124;5.196;2022-09-21T00:24:06;102553.00;;;22.80
20733;BMP180;10527;52.124;5.196;2022-09-21T00:26:33;102556.00;;;22.80
20733;BMP180;10527;52.124;5.196;2022-09-21T00:29:02;102554.00;;;22.80
20733;BMP180;10527;52.124;5.196;2022-09-21T00:31:30;102544.00;;;22.70
20733;BMP180;10527;52.124;5.196;2022-09-21T00:33:59;102551.00;;;22.70
20733;BMP180;10527;52.124;5.196;2022-09-21T00:36:27;102548.00;;;22.70
20733;BMP180;10527;52.124;5.196;2022-09-21T00:38:58;102550.00;;;22.70
20733;BMP180;10527;52.124;5.196;2022-09-21T00:41:30;102545.00;;;22.70
20733;BMP180;10527;52.124;5.196;2022-09-21T00:44:31;102554.00;;;22.70
20733;BMP180;10527;52.124;5.196;2022-09-21T00:47:10;102553.00;;;22.60
20733;BMP180;10527;52.124;5.196;2022-09-21T00:49:39;102553.00;;;22.60
20733;BMP180;10527;52.124;5.196;2022-09-21T00:52:10;102547.00;;;22.60
20733;BMP180;10527;52.124;5.196;2022-09-21T00:54:50;102555.00;;;22.60
20733;BMP180;10527;52.124;5.196;2022-09-21T00:57:21;102552.00;;;22.60
20733;BMP180;10527;52.124;5.196;2022-09-21T00:59:53;102553.00;;;22.50
20733;BMP180;10527;52.124;5.196;2022-09-21T01:02:21;102552.00;;;22.50
20733;BMP180;10527;52.124;5.196;2022-09-21T01:04:51;102553.00;;;22.50
20733;BMP180;10527;52.124;5.196;2022-09-21T01:07:26;102555.00;;;22.40
20733;BMP180;10527;52.124;5.196;2022-09-21T01:10:00;102560.00;;;22.40
20733;BMP180;10527;52.124;5.196;2022-09-21T01:15:38;102561.00;;;22.40
20733;BMP180;10527;52.124;5.196;2022-09-21T01:18:20;102560.00;;;22.30
20733;BMP180;10527;52.124;5.196;2022-09-21T01:26:58;102557.00;;;22.20
20733;BMP180;10527;52.124;5.196;2022-09-21T01:32:39;102560.00;;;22.10
20733;BMP180;10527;52.124;5.196;2022-09-21T01:35:32;102559.00;;;22.10
20733;BMP180;10527;52.124;5.196;2022-09-21T01:38:13;102558.00;;;22.00
20733;BMP180;10527;52.124;5.196;2022-09-21T01:40:53;102555.00;;;22.00
20733;BMP180;10527;52.124;5.196;2022-09-21T01:43:29;102552.00;;;22.00
20733;BMP180;10527;52.124;5.196;2022-09-21T01:46:00;102551.00;;;21.90
20733;BMP180;10527;52.124;5.196;2022-09-21T01:48:37;102543.00;;;21.90
20733;BMP180;10527;52.124;5.196;2022-09-21T01:51:09;102548.00;;;21.90
20733;BMP180;10527;52.124;5.196;2022-09-21T01:53:44;102543.00;;;21.80
20733;BMP180;10527;52.124;5.196;2022-09-21T01:56:23;102558.00;;;21.80
20733;BMP180;10527;52.124;5.196;2022-09-21T02:02:10;102553.00;;;21.80
20733;BMP180;10527;52.124;5.196;2022-09-21T02:04:38;102554.00;;;21.70
20733;BMP180;10527;52.124;5.196;2022-09-21T02:07:06;102550.00;;;21.70
20733;BMP180;10527;52.124;5.196;2022-09-21T02:09:35;102547.00;;;21.70
20733;BMP180;10527;52.124;5.196;2022-09-21T02:12:04;102544.00;;;21.60
20733;BMP180;10527;52.124;5.196;2022-09-21T02:14:42;102545.00;;;21.60
20733;BMP180;10527;52.124;5.196;2022-09-21T02:17:19;102546.00;;;21.50
20733;BMP180;10527;52.124;5.196;2022-09-21T02:23:54;102549.00;;;21.50
20733;BMP180;10527;52.124;5.196;2022-09-21T02:26:01;102553.00;;;21.40
20733;BMP180;10527;52.124;5.196;2022-09-21T02:28:44;102552.00;;;21.40
20733;BMP180;10527;52.124;5.196;2022-09-21T02:31:19;102555.00;;;21.40
20733;BMP180;10527;52.124;5.196;2022-09-21T02:37:02;102553.00;;;21.30
20733;BMP180;10527;52.124;5.196;2022-09-21T02:39:42;102550.00;;;21.30
20733;BMP180;10527;52.124;5.196;2022-09-21T02:42:27;102552.00;;;21.20
20733;BMP180;10527;52.124;5.196;2022-09-21T02:45:06;102556.00;;;21.20
20733;BMP180;10527;52.124;5.196;2022-09-21T02:47:56;102543.00;;;21.20
20733;BMP180;10527;52.124;5.196;2022-09-21T02:50:35;102551.00;;;21.20
20733;BMP180;10527;52.124;5.196;2022-09-21T02:53:06;102550.00;;;21.10
20733;BMP180;10527;52.124;5.196;2022-09-21T02:55:35;102551.00;;;21.10
20733;BMP180;10527;52.124;5.196;2022-09-21T02:58:08;102538.00;;;21.00
20733;BMP180;10527;52.124;5.196;2022-09-21T03:00:37;102545.00;;;21.00
20733;BMP180;10527;52.124;5.196;2022-09-21T03:03:20;102540.00;;;21.00
20733;BMP180;10527;52.124;5.196;2022-09-21T03:05:51;102535.00;;;21.00
20733;BMP180;10527;52.124;5.196;2022-09-21T03:08:18;102541.00;;;20.90
20733;BMP180;10527;52.124;5.196;2022-09-21T03:10:45;102540.00;;;20.90
20733;BMP180;10527;52.124;5.196;2022-09-21T03:13:16;102545.00;;;20.90
20733;BMP180;10527;52.124;5.196;2022-09-21T03:15:45;102540.00;;;20.90
20733;BMP180;10527;52.124;5.196;2022-09-21T03:18:13;102541.00;;;20.90
20733;BMP180;10527;52.124;5.196;2022-09-21T03:20:44;102552.00;;;20.90
20733;BMP180;10527;52.124;5.196;2022-09-21T03:23:12;102539.00;;;20.80
20733;BMP180;10527;52.124;5.196;2022-09-21T03:25:43;102548.00;;;20.80
20733;BMP180;10527;52.124;5.196;2022-09-21T03:28:11;102545.00;;;20.80
20733;BMP180;10527;52.124;5.196;2022-09-21T03:30:39;102548.00;;;20.80
20733;BMP180;10527;52.124;5.196;2022-09-21T03:33:06;102550.00;;;20.70
20733;BMP180;10527;52.124;5.196;2022-09-21T03:35:34;102552.00;;;20.70
20733;BMP180;10527;52.124;5.196;2022-09-21T03:38:01;102557.00;;;20.70
20733;BMP180;10527;52.124;5.196;2022-09-21T03:40:28;102558.00;;;20.70
20733;BMP180;10527;52.124;5.196;2022-09-21T03:42:55;102551.00;;;20.70
20733;BMP180;10527;52.124;5.196;2022-09-21T03:45:22;102551.00;;;20.70
20733;BMP180;10527;52.124;5.196;2022-09-21T03:47:49;102560.00;;;20.60
20733;BMP180;10527;52.124;5.196;2022-09-21T03:50:16;102560.00;;;20.60
20733;BMP180;10527;52.124;5.196;2022-09-21T03:52:43;102559.00;;;20.60
20733;BMP180;10527;52.124;5.196;2022-09-21T03:55:09;102553.00;;;20.60
20733;BMP180;10527;52.124;5.196;2022-09-21T03:57:36;102546.00;;;20.60
20733;BMP180;10527;52.124;5.196;2022-09-21T04:00:08;102549.00;;;20.60
20733;BMP180;10527;52.124;5.196;2022-09-21T04:02:37;102553.00;;;20.50
20733;BMP180;10527;52.124;5.196;2022-09-21T04:05:13;102547.00;;;20.50
20733;BMP180;10527;52.124;5.196;2022-09-21T04:07:44;102547.00;;;20.50
20733;BMP180;10527;52.124;5.196;2022-09-21T04:10:18;102547.00;;;20.50
20733;BMP180;10527;52.124;5.196;2022-09-21T04:12:46;102545.00;;;20.50
20733;BMP180;10527;52.124;5.196;2022-09-21T04:15:17;102541.00;;;20.40
20733;BMP180;10527;52.124;5.196;2022-09-21T04:17:50;102549.00;;;20.40
20733;BMP180;10527;52.124;5.196;2022-09-21T04:20:18;102547.00;;;20.40
20733;BMP180;10527;52.124;5.196;2022-09-21T04:22:45;102546.00;;;20.40
20733;BMP180;10527;52.124;5.196;2022-09-21T04:25:14;102549.00;;;20.40
20733;BMP180;10527;52.124;5.196;2022-09-21T04:27:41;102545.00;;;20.30
20733;BMP180;10527;52.124;5.196;2022-09-21T04:30:11;102547.00;;;20.30
20733;BMP180;10527;52.124;5.196;2022-09-21T04:32:38;102540.00;;;20.30
20733;BMP180;10527;52.124;5.196;2022-09-21T04:35:06;102550.00;;;20.30
20733;BMP180;10527;52.124;5.196;2022-09-21T04:37:33;102557.00;;;20.30
20733;BMP180;10527;52.124;5.196;2022-09-21T04:40:02;102544.00;;;20.20
20733;BMP180;10527;52.124;5.196;2022-09-21T04:42:29;102550.00;;;20.20
20733;BMP180;10527;52.124;5.196;2022-09-21T04:44:56;102540.00;;;20.20
20733;BMP180;10527;52.124;5.196;2022-09-21T04:47:23;102553.00;;;20.20
20733;BMP180;10527;52.124;5.196;2022-09-21T04:49:51;102542.00;;;20.20
20733;BMP180;10527;52.124;5.196;2022-09-21T04:52:18;102545.00;;;20.10
20733;BMP180;10527;52.124;5.196;2022-09-21T04:54:46;102553.00;;;20.10
20733;BMP180;10527;52.124;5.196;2022-09-21T04:57:14;102562.00;;;20.10
20733;BMP180;10527;52.124;5.196;2022-09-21T04:59:40;102546.00;;;20.10
20733;BMP180;10527;52.124;5.196;2022-09-21T05:02:08;102547.00;;;20.00
20733;BMP180;10527;52.124;5.196;2022-09-21T05:04:35;102551.00;;;20.00
20733;BMP180;10527;52.124;5.196;2022-09-21T05:07:02;102555.00;;;20.00
20733;BMP180;10527;52.124;5.196;2022-09-21T05:09:29;102556.00;;;20.00
20733;BMP180;10527;52.124;5.196;2022-09-21T05:12:14;102560.00;;;19.90
20733;BMP180;10527;52.124;5.196;2022-09-21T05:14:41;102562.00;;;19.90
20733;BMP180;10527;52.124;5.196;2022-09-21T05:17:11;102567.00;;;19.90
20733;BMP180;10527;52.124;5.196;2022-09-21T05:19:38;102562.00;;;19.90
20733;BMP180;10527;52.124;5.196;2022-09-21T05:22:05;102565.00;;;19.90
20733;BMP180;10527;52.124;5.196;2022-09-21T05:24:32;102569.00;;;19.80
20733;BMP180;10527;52.124;5.196;2022-09-21T05:27:00;102576.00;;;19.80
20733;BMP180;10527;52.124;5.196;2022-09-21T05:29:29;102578.00;;;19.80
20733;BMP180;10527;52.124;5.196;2022-09-21T05:32:24;102574.00;;;19.70
20733;BMP180;10527;52.124;5.196;2022-09-21T05:35:03;102576.00;;;19.70
20733;BMP180;10527;52.124;5.196;2022-09-21T05:37:56;102585.00;;;19.70
20733;BMP180;10527;52.124;5.196;2022-09-21T05:40:28;102577.00;;;19.60
20733;BMP180;10527;52.124;5.196;2022-09-21T05:42:55;102579.00;;;19.50
20733;BMP180;10527;52.124;5.196;2022-09-21T05:45:23;102577.00;;;19.50
20733;BMP180;10527;52.124;5.196;2022-09-21T05:48:14;102574.00;;;19.60
20733;BMP180;10527;52.124;5.196;2022-09-21T05:51:04;102579.00;;;19.60
20733;BMP180;10527;52.124;5.196;2022-09-21T06:03:34;102591.00;;;19.50
20733;BMP180;10527;52.124;5.196;2022-09-21T06:05:42;102598.00;;;19.50
20733;BMP180;10527;52.124;5.196;2022-09-21T06:08:09;102608.00;;;19.50
20733;BMP180;10527;52.124;5.196;2022-09-21T06:10:36;102602.00;;;19.50
20733;BMP180;10527;52.124;5.196;2022-09-21T06:13:03;102602.00;;;19.60
20733;BMP180;10527;52.124;5.196;2022-09-21T06:15:30;102596.00;;;19.60
20733;BMP180;10527;52.124;5.196;2022-09-21T06:17:57;102598.00;;;19.60
20733;BMP180;10527;52.124;5.196;2022-09-21T06:20:26;102604.00;;;19.50
20733;BMP180;10527;52.124;5.196;2022-09-21T06:23:03;102610.00;;;19.50
20733;BMP180;10527;52.124;5.196;2022-09-21T06:25:30;102607.00;;;19.40
20733;BMP180;10527;52.124;5.196;2022-09-21T06:28:13;102605.00;;;19.50
20733;BMP180;10527;52.124;5.196;2022-09-21T06:30:40;102605.00;;;19.50
20733;BMP180;10527;52.124;5.196;2022-09-21T06:33:08;102602.00;;;19.50
20733;BMP180;10527;52.124;5.196;2022-09-21T06:35:36;102596.00;;;19.60
20733;BMP180;10527;52.124;5.196;2022-09-21T06:38:10;102599.00;;;19.60
20733;BMP180;10527;52.124;5.196;2022-09-21T06:40:36;102605.00;;;19.60
20733;BMP180;10527;52.124;5.196;2022-09-21T06:43:04;102606.00;;;19.70
20733;BMP180;10527;52.124;5.196;2022-09-21T06:45:35;102598.00;;;19.70
20733;BMP180;10527;52.124;5.196;2022-09-21T06:48:05;102601.00;;;19.70
20733;BMP180;10527;52.124;5.196;2022-09-21T06:50:32;102603.00;;;19.70
20733;BMP180;10527;52.124;5.196;2022-09-21T06:53:00;102600.00;;;19.80
20733;BMP180;10527;52.124;5.196;2022-09-21T06:55:30;102605.00;;;19.80
20733;BMP180;10527;52.124;5.196;2022-09-21T06:58:04;102610.00;;;19.80
20733;BMP180;10527;52.124;5.196;2022-09-21T07:00:32;102601.00;;;19.90
20733;BMP180;10527;52.124;5.196;2022-09-21T07:03:09;102613.00;;;19.90
20733;BMP180;10527;52.124;5.196;2022-09-21T07:05:38;102605.00;;;19.90
20733;BMP180;10527;52.124;5.196;2022-09-21T07:08:05;102613.00;;;20.00
20733;BMP180;10527;52.124;5.196;2022-09-21T07:11:00;102610.00;;;20.00
20733;BMP180;10527;52.124;5.196;2022-09-21T07:13:28;102609.00;;;20.00
20733;BMP180;10527;52.124;5.196;2022-09-21T07:15:55;102610.00;;;20.10
20733;BMP180;10527;52.124;5.196;2022-09-21T07:18:27;102618.00;;;20.10
20733;BMP180;10527;52.124;5.196;2022-09-21T07:20:55;102612.00;;;20.10
20733;BMP180;10527;52.124;5.196;2022-09-21T07:23:22;102613.00;;;20.20
20733;BMP180;10527;52.124;5.196;2022-09-21T07:25:51;102617.00;;;20.20
20733;BMP180;10527;52.124;5.196;2022-09-21T07:28:18;102612.00;;;20.30
20733;BMP180;10527;52.124;5.196;2022-09-21T07:30:45;102615.00;;;20.30
20733;BMP180;10527;52.124;5.196;2022-09-21T07:33:12;102612.00;;;20.40
20733;BMP180;10527;52.124;5.196;2022-09-21T07:35:39;102611.00;;;20.40
20733;BMP180;10527;52.124;5.196;2022-09-21T07:38:06;102604.00;;;20.50
20733;BMP180;10527;52.124;5.196;2022-09-21T07:40:34;102603.00;;;20.50
20733;BMP180;10527;52.124;5.196;2022-09-21T07:43:03;102610.00;;;20.60
20733;BMP180;10527;52.124;5.196;2022-09-21T07:45:30;102605.00;;;20.70
20733;BMP180;10527;52.124;5.196;2022-09-21T07:48:05;102608.00;;;20.70
20733;BMP180;10527;52.124;5.196;2022-09-21T07:50:35;102607.00;;;20.80
20733;BMP180;10527;52.124;5.196;2022-09-21T07:53:03;102610.00;;;20.80
20733;BMP180;10527;52.124;5.196;2022-09-21T07:55:30;102600.00;;;20.80
20733;BMP180;10527;52.124;5.196;2022-09-21T07:57:56;102597.00;;;20.90
20733;BMP180;10527;52.124;5.196;2022-09-21T08:00:42;102601.00;;;21.00
20733;BMP180;10527;52.124;5.196;2022-09-21T08:03:09;102606.00;;;21.00
20733;BMP180;10527;52.124;5.196;2022-09-21T08:05:36;102608.00;;;21.10
20733;BMP180;10527;52.124;5.196;2022-09-21T08:08:03;102606.00;;;21.20
20733;BMP180;10527;52.124;5.196;2022-09-21T08:10:29;102599.00;;;21.50
20733;BMP180;10527;52.124;5.196;2022-09-21T08:12:57;102601.00;;;21.90
20733;BMP180;10527;52.124;5.196;2022-09-21T08:15:26;102605.00;;;22.50
20733;BMP180;10527;52.124;5.196;2022-09-21T08:18:13;102608.00;;;23.30
20733;BMP180;10527;52.124;5.196;2022-09-21T08:20:39;102600.00;;;24.00
20733;BMP180;10527;52.124;5.196;2022-09-21T08:23:07;102616.00;;;24.60
20733;BMP180;10527;52.124;5.196;2022-09-21T08:25:34;102620.00;;;25.30
20733;BMP180;10527;52.124;5.196;2022-09-21T08:28:01;102622.00;;;25.90
20733;BMP180;10527;52.124;5.196;2022-09-21T08:30:34;102626.00;;;26.50
20733;BMP180;10527;52.124;5.196;2022-09-21T08:33:01;102625.00;;;27.00
20733;BMP180;10527;52.124;5.196;2022-09-21T08:35:29;102624.00;;;27.50
20733;BMP180;10527;52.124;5.196;2022-09-21T08:37:55;102634.00;;;28.00
20733;BMP180;10527;52.124;5.196;2022-09-21T08:40:22;102631.00;;;28.30
20733;BMP180;10527;52.124;5.196;2022-09-21T08:43:08;102632.00;;;28.70
20733;BMP180;10527;52.124;5.196;2022-09-21T08:45:42;102626.00;;;28.90
20733;BMP180;10527;52.124;5.196;2022-09-21T08:48:46;102639.00;;;29.20
20733;BMP180;10527;52.124;5.196;2022-09-21T08:51:21;102640.00;;;29.40
20733;BMP180;10527;52.124;5.196;2022-09-21T08:53:56;102642.00;;;29.70
20733;BMP180;10527;52.124;5.196;2022-09-21T08:56:26;102635.00;;;29.90
20733;BMP180;10527;52.124;5.196;2022-09-21T08:59:13;102646.00;;;30.10
20733;BMP180;10527;52.124;5.196;2022-09-21T09:08:16;102650.00;;;30.50
20733;BMP180;10527;52.124;5.196;2022-09-21T09:11:02;102644.00;;;30.50
20733;BMP180;10527;52.124;5.196;2022-09-21T09:16:55;102653.00;;;30.50
20733;BMP180;10527;52.124;5.196;2022-09-21T09:19:57;102652.00;;;30.50
20733;BMP180;10527;52.124;5.196;2022-09-21T09:22:42;102654.00;;;30.50
20733;BMP180;10527;52.124;5.196;2022-09-21T09:25:22;102652.00;;;30.40
20733;BMP180;10527;52.124;5.196;2022-09-21T09:27:58;102650.00;;;30.20
20733;BMP180;10527;52.124;5.196;2022-09-21T09:30:32;102650.00;;;30.00
20733;BMP180;10527;52.124;5.196;2022-09-21T09:36:13;102657.00;;;29.70
20733;BMP180;10527;52.124;5.196;2022-09-21T09:39:09;102657.00;;;29.50
20733;BMP180;10527;52.124;5.196;2022-09-21T09:47:43;102650.00;;;29.00
20733;BMP180;10527;52.124;5.196;2022-09-21T09:50:29;102654.00;;;29.00
20733;BMP180;10527;52.124;5.196;2022-09-21T09:53:15;102645.00;;;29.00
20733;BMP180;10527;52.124;5.196;2022-09-21T09:55:47;102643.00;;;29.00
20733;BMP180;10527;52.124;5.196;2022-09-21T09:58:22;102641.00;;;29.00
20733;BMP180;10527;52.124;5.196;2022-09-21T10:00:54;102645.00;;;29.00
20733;BMP180;10527;52.124;5.196;2022-09-21T10:03:27;102641.00;;;28.90
20733;BMP180;10527;52.124;5.196;2022-09-21T10:05:55;102634.00;;;28.90
20733;BMP180;10527;52.124;5.196;2022-09-21T10:08:43;102638.00;;;28.80
20733;BMP180;10527;52.124;5.196;2022-09-21T10:11:15;102639.00;;;28.70
20733;BMP180;10527;52.124;5.196;2022-09-21T10:13:45;102648.00;;;28.60
20733;BMP180;10527;52.124;5.196;2022-09-21T10:16:18;102641.00;;;28.40
20733;BMP180;10527;52.124;5.196;2022-09-21T10:18:53;102641.00;;;28.20
20733;BMP180;10527;52.124;5.196;2022-09-21T10:21:40;102644.00;;;28.10
20733;BMP180;10527;52.124;5.196;2022-09-21T10:24:30;102642.00;;;28.00
20733;BMP180;10527;52.124;5.196;2022-09-21T10:27:12;102643.00;;;27.80
20733;BMP180;10527;52.124;5.196;2022-09-21T10:29:47;102638.00;;;27.70
20733;BMP180;10527;52.124;5.196;2022-09-21T10:37:47;102631.00;;;27.40
20733;BMP180;10527;52.124;5.196;2022-09-21T10:42:58;102625.00;;;27.20
20733;BMP180;10527;52.124;5.196;2022-09-21T10:45:31;102625.00;;;27.10
20733;BMP180;10527;52.124;5.196;2022-09-21T10:48:14;102627.00;;;27.10
20733;BMP180;10527;52.124;5.196;2022-09-21T10:50:44;102611.00;;;27.00
20733;BMP180;10527;52.124;5.196;2022-09-21T10:53:22;102620.00;;;27.00
20733;BMP180;10527;52.124;5.196;2022-09-21T10:56:14;102621.00;;;26.90
20733;BMP180;10527;52.124;5.196;2022-09-21T10:59:21;102621.00;;;26.90
20733;BMP180;10527;52.124;5.196;2022-09-21T11:01:54;102620.00;;;26.80
20733;BMP180;10527;52.124;5.196;2022-09-21T11:07:04;102620.00;;;26.70
20733;BMP180;10527;52.124;5.196;2022-09-21T11:09:44;102608.00;;;26.70
20733;BMP180;10527;52.124;5.196;2022-09-21T11:15:54;102607.00;;;26.60
20733;BMP180;10527;52.124;5.196;2022-09-21T11:18:52;102607.00;;;26.50
20733;BMP180;10527;52.124;5.196;2022-09-21T11:21:51;102607.00;;;26.50
20733;BMP180;10527;52.124;5.196;2022-09-21T11:27:33;102609.00;;;26.50
20733;BMP180;10527;52.124;5.196;2022-09-21T11:30:16;102605.00;;;26.50
20733;BMP180;10527;52.124;5.196;2022-09-21T11:33:14;102597.00;;;26.50
20733;BMP180;10527;52.124;5.196;2022-09-21T11:39:08;102608.00;;;26.40
20733;BMP180;10527;52.124;5.196;2022-09-21T11:56:20;102591.00;;;26.60
20733;BMP180;10527;52.124;5.196;2022-09-21T12:05:21;102584.00;;;26.70
20733;BMP180;10527;52.124;5.196;2022-09-21T12:08:37;102588.00;;;26.70
20733;BMP180;10527;52.124;5.196;2022-09-21T12:14:36;102583.00;;;26.70
20733;BMP180;10527;52.124;5.196;2022-09-21T12:17:39;102575.00;;;26.70
20733;BMP180;10527;52.124;5.196;2022-09-21T12:22:45;102576.00;;;26.70
20733;BMP180;10527;52.124;5.196;2022-09-21T12:28:40;102567.00;;;26.70
20733;BMP180;10527;52.124;5.196;2022-09-21T12:31:20;102566.00;;;26.70
20733;BMP180;10527;52.124;5.196;2022-09-21T12:34:18;102563.00;;;26.70
20733;BMP180;10527;52.124;5.196;2022-09-21T12:37:11;102569.00;;;26.70
20733;BMP180;10527;52.124;5.196;2022-09-21T12:43:29;102568.00;;;26.60
20733;BMP180;10527;52.124;5.196;2022-09-21T12:46:32;102565.00;;;26.70
20733;BMP180;10527;52.124;5.196;2022-09-21T12:49:17;102564.00;;;26.70
20733;BMP180;10527;52.124;5.196;2022-09-21T12:51:54;102560.00;;;26.70
20733;BMP180;10527;52.124;5.196;2022-09-21T12:58:06;102559.00;;;26.70
20733;BMP180;10527;52.124;5.196;2022-09-21T13:01:28;102552.00;;;26.80
20733;BMP180;10527;52.124;5.196;2022-09-21T13:09:48;102547.00;;;26.80
20733;BMP180;10527;52.124;5.196;2022-09-21T13:12:37;102544.00;;;26.80
20733;BMP180;10527;52.124;5.196;2022-09-21T13:15:31;102543.00;;;26.90
20733;BMP180;10527;52.124;5.196;2022-09-21T13:18:05;102539.00;;;26.90
20733;BMP180;10527;52.124;5.196;2022-09-21T13:20:38;102542.00;;;27.00
20733;BMP180;10527;52.124;5.196;2022-09-21T13:23:38;102540.00;;;27.00
20733;BMP180;10527;52.124;5.196;2022-09-21T13:26:11;102549.00;;;27.10
20733;BMP180;10527;52.124;5.196;2022-09-21T13:28:59;102537.00;;;27.20
20733;BMP180;10527;52.124;5.196;2022-09-21T13:31:41;102541.00;;;27.20
20733;BMP180;10527;52.124;5.196;2022-09-21T13:34:41;102528.00;;;27.20
20733;BMP180;10527;52.124;5.196;2022-09-21T13:42:48;102529.00;;;27.40
20733;BMP180;10527;52.124;5.196;2022-09-21T13:47:47;102527.00;;;27.60
20733;BMP180;10527;52.124;5.196;2022-09-21T13:50:34;102529.00;;;27.80
20733;BMP180;10527;52.124;5.196;2022-09-21T13:53:22;102521.00;;;27.80
20733;BMP180;10527;52.124;5.196;2022-09-21T13:56:07;102526.00;;;28.00
20733;BMP180;10527;52.124;5.196;2022-09-21T13:58:45;102525.00;;;28.10
20733;BMP180;10527;52.124;5.196;2022-09-21T14:01:20;102521.00;;;28.20
20733;BMP180;10527;52.124;5.196;2022-09-21T14:04:25;102522.00;;;28.30
20733;BMP180;10527;52.124;5.196;2022-09-21T14:06:56;102520.00;;;28.40
20733;BMP180;10527;52.124;5.196;2022-09-21T14:09:40;102514.00;;;28.40
20733;BMP180;10527;52.124;5.196;2022-09-21T14:12:22;102514.00;;;28.50
20733;BMP180;10527;52.124;5.196;2022-09-21T14:17:45;102513.00;;;28.50
20733;BMP180;10527;52.124;5.196;2022-09-21T14:20:33;102508.00;;;28.60
20733;BMP180;10527;52.124;5.196;2022-09-21T14:28:54;102509.00;;;28.70
20733;BMP180;10527;52.124;5.196;2022-09-21T14:31:35;102501.00;;;28.80
20733;BMP180;10527;52.124;5.196;2022-09-21T14:34:13;102496.00;;;28.80
20733;BMP180;10527;52.124;5.196;2022-09-21T14:36:45;102501.00;;;28.90
20733;BMP180;10527;52.124;5.196;2022-09-21T14:42:06;102502.00;;;29.00
20733;BMP180;10527;52.124;5.196;2022-09-21T14:44:41;102504.00;;;29.00
20733;BMP180;10527;52.124;5.196;2022-09-21T14:47:53;102501.00;;;29.00
20733;BMP180;10527;52.124;5.196;2022-09-21T14:50:46;102494.00;;;29.00
20733;BMP180;10527;52.124;5.196;2022-09-21T14:53:40;102496.00;;;29.00
20733;BMP180;10527;52.124;5.196;2022-09-21T14:56:29;102486.00;;;28.90
20733;BMP180;10527;52.124;5.196;2022-09-21T15:02:21;102483.00;;;28.90
20733;BMP180;10527;52.124;5.196;2022-09-21T15:05:18;102482.00;;;28.80
20733;BMP180;10527;52.124;5.196;2022-09-21T15:11:26;102483.00;;;28.70
20733;BMP180;10527;52.124;5.196;2022-09-21T15:14:32;102477.00;;;28.70
20733;BMP180;10527;52.124;5.196;2022-09-21T15:17:27;102482.00;;;28.60
20733;BMP180;10527;52.124;5.196;2022-09-21T15:20:01;102477.00;;;28.50
20733;BMP180;10527;52.124;5.196;2022-09-21T15:22:43;102468.00;;;28.40
20733;BMP180;10527;52.124;5.196;2022-09-21T15:25:12;102465.00;;;28.40
20733;BMP180;10527;52.124;5.196;2022-09-21T15:27:43;102467.00;;;28.30
20733;BMP180;10527;52.124;5.196;2022-09-21T15:30:26;102469.00;;;28.30
20733;BMP180;10527;52.124;5.196;2022-09-21T15:33:00;102468.00;;;28.30
20733;BMP180;10527;52.124;5.196;2022-09-21T15:35:32;102463.00;;;28.30
20733;BMP180;10527;52.124;5.196;2022-09-21T15:37:59;102470.00;;;28.20
20733;BMP180;10527;52.124;5.196;2022-09-21T15:40:35;102468.00;;;28.20
20733;BMP180;10527;52.124;5.196;2022-09-21T15:45:52;102462.00;;;28.10
20733;BMP180;10527;52.124;5.196;2022-09-21T15:48:26;102462.00;;;28.00
20733;BMP180;10527;52.124;5.196;2022-09-21T15:51:25;102459.00;;;28.00
20733;BMP180;10527;52.124;5.196;2022-09-21T15:57:23;102455.00;;;28.00
20733;BMP180;10527;52.124;5.196;2022-09-21T15:59:51;102456.00;;;28.00
20733;BMP180;10527;52.124;5.196;2022-09-21T16:02:25;102458.00;;;28.10
20733;BMP180;10527;52.124;5.196;2022-09-21T16:04:55;102448.00;;;28.10
20733;BMP180;10527;52.124;5.196;2022-09-21T16:09:58;102450.00;;;28.10
20733;BMP180;10527;52.124;5.196;2022-09-21T16:12:42;102448.00;;;28.10
20733;BMP180;10527;52.124;5.196;2022-09-21T16:15:28;102449.00;;;28.00
20733;BMP180;10527;52.124;5.196;2022-09-21T16:18:03;102451.00;;;28.00
20733;BMP180;10527;52.124;5.196;2022-09-21T16:20:45;102447.00;;;28.10
20733;BMP180;10527;52.124;5.196;2022-09-21T16:23:23;102443.00;;;28.00
20733;BMP180;10527;52.124;5.196;2022-09-21T16:26:38;102450.00;;;28.00
20733;BMP180;10527;52.124;5.196;2022-09-21T16:29:25;102450.00;;;27.90
20733;BMP180;10527;52.124;5.196;2022-09-21T16:34:46;102448.00;;;27.80
20733;BMP180;10527;52.124;5.196;2022-09-21T16:37:24;102449.00;;;27.80
20733;BMP180;10527;52.124;5.196;2022-09-21T16:39:56;102440.00;;;27.70
20733;BMP180;10527;52.124;5.196;2022-09-21T16:42:27;102444.00;;;27.70
20733;BMP180;10527;52.124;5.196;2022-09-21T16:44:59;102438.00;;;27.60
20733;BMP180;10527;52.124;5.196;2022-09-21T16:47:27;102452.00;;;27.60
20733;BMP180;10527;52.124;5.196;2022-09-21T16:49:58;102446.00;;;27.60
20733;BMP180;10527;52.124;5.196;2022-09-21T16:52:29;102452.00;;;27.50
20733;BMP180;10527;52.124;5.196;2022-09-21T16:54:56;102454.00;;;27.50
20733;BMP180;10527;52.124;5.196;2022-09-21T16:57:39;102457.00;;;27.50
20733;BMP180;10527;52.124;5.196;2022-09-21T17:00:11;102456.00;;;27.50
20733;BMP180;10527;52.124;5.196;2022-09-21T17:02:38;102456.00;;;27.40
20733;BMP180;10527;52.124;5.196;2022-09-21T17:05:08;102461.00;;;27.30
20733;BMP180;10527;52.124;5.196;2022-09-21T17:07:35;102452.00;;;27.20
20733;BMP180;10527;52.124;5.196;2022-09-21T17:10:12;102454.00;;;27.20
20733;BMP180;10527;52.124;5.196;2022-09-21T17:12:39;102454.00;;;27.20
20733;BMP180;10527;52.124;5.196;2022-09-21T17:15:10;102458.00;;;27.20